createdAt,value
2022-11-21T00:00:03.612Z,-4.16
2022-11-21T00:02:50.619Z,-4.23
2022-11-21T00:05:23.693Z,-4.25
2022-11-21T00:08:10.627Z,-4.28
2022-11-21T00:10:52.630Z,-4.27
2022-11-21T00:13:46.728Z,-4.29
2022-11-21T00:16:40.620Z,-4.28
2022-11-21T00:19:27.621Z,-4.25
2022-11-21T00:22:00.775Z,-4.22
2022-11-21T00:24:51.689Z,-4.22
2022-11-21T00:27:26.762Z,-4.17
2022-11-21T00:30:15.638Z,-4.22
2022-11-21T00:32:48.731Z,-4.27
2022-11-21T00:35:35.694Z,-4.36
2022-11-21T00:38:08.720Z,-4.42
2022-11-21T00:41:02.662Z,-4.44
2022-11-21T00:43:56.643Z,-4.41
2022-11-21T00:46:43.609Z,-4.41
2022-11-21T00:49:16.721Z,-4.45
2022-11-21T00:52:03.692Z,-4.45
2022-11-21T00:54:36.769Z,-4.47
2022-11-21T00:57:23.626Z,-4.53
2022-11-21T01:00:03.700Z,-4.56
2022-11-21T01:02:57.635Z,-4.58
2022-11-21T01:05:44.639Z,-4.56
2022-11-21T01:08:24.644Z,-4.58
2022-11-21T01:11:19.696Z,-4.58
2022-11-21T01:14:07.698Z,-4.63
2022-11-21T01:16:43.613Z,-4.64
2022-11-21T01:19:30.681Z,-4.64
2022-11-21T01:22:03.720Z,-4.63
2022-11-21T01:24:50.632Z,-4.60
2022-11-21T01:27:23.738Z,-4.60
2022-11-21T01:30:10.662Z,-4.56
2022-11-21T01:32:50.730Z,-4.60
2022-11-21T01:35:37.699Z,-4.61
2022-11-21T01:38:17.689Z,-4.58
2022-11-21T01:41:11.696Z,-4.58
2022-11-21T01:43:58.638Z,-4.62
2022-11-21T01:46:32.781Z,-4.65
2022-11-21T01:49:31.696Z,-4.70
2022-11-21T01:52:35.887Z,-4.73
2022-11-21T01:55:22.672Z,-4.74
2022-11-21T01:58:02.653Z,-4.72
2022-11-21T02:01:00.732Z,-4.73
2022-11-21T02:03:49.633Z,-4.73
2022-11-21T02:06:22.776Z,-4.73
2022-11-21T02:09:10.656Z,-4.72
2022-11-21T02:11:52.770Z,-4.72
2022-11-21T02:14:40.663Z,-4.67
2022-11-21T02:17:15.730Z,-4.62
2022-11-21T02:20:04.710Z,-4.59
2022-11-21T02:22:51.838Z,-4.58
2022-11-21T02:25:42.657Z,-4.63
2022-11-21T02:28:20.778Z,-4.68
2022-11-21T02:31:07.696Z,-4.72
2022-11-21T02:33:47.698Z,-4.76
2022-11-21T02:36:48.656Z,-4.78
2022-11-21T02:39:36.764Z,-4.86
2022-11-21T02:42:27.701Z,-4.86
2022-11-21T02:45:17.697Z,-4.85
2022-11-21T02:48:04.760Z,-4.84
2022-11-21T02:50:43.443Z,-4.86
2022-11-21T02:53:29.699Z,-4.89
2022-11-21T02:56:02.875Z,-4.88
2022-11-21T02:58:49.698Z,-4.86
2022-11-21T03:01:29.745Z,-4.85
2022-11-21T03:04:23.700Z,-4.92
2022-11-21T03:07:10.764Z,-5.03
2022-11-21T03:09:43.784Z,-5.05
2022-11-21T03:12:30.726Z,-5.01
2022-11-21T03:15:03.790Z,-4.96
2022-11-21T03:17:50.720Z,-4.95
2022-11-21T03:20:23.843Z,-4.99
2022-11-21T03:23:10.713Z,-5.04
2022-11-21T03:25:43.865Z,-5.12
2022-11-21T03:28:30.708Z,-5.11
2022-11-21T03:31:03.780Z,-5.11
2022-11-21T03:33:50.710Z,-5.13
2022-11-21T03:36:24.075Z,-5.13
2022-11-21T03:39:10.719Z,-5.15
2022-11-21T03:41:43.773Z,-5.18
2022-11-21T03:44:30.710Z,-5.22
2022-11-21T03:47:03.776Z,-5.21
2022-11-21T03:49:50.721Z,-5.18
2022-11-21T03:52:23.785Z,-5.12
2022-11-21T03:55:11.686Z,-5.11
2022-11-21T03:57:45.861Z,-5.13
2022-11-21T04:00:34.712Z,-5.11
2022-11-21T04:03:10.802Z,-5.11
2022-11-21T04:05:57.746Z,-5.14
2022-11-21T04:08:30.801Z,-5.17
2022-11-21T04:11:17.742Z,-5.18
2022-11-21T04:13:50.887Z,-5.18
2022-11-21T04:16:37.741Z,-5.18
2022-11-21T04:19:17.734Z,-5.21
2022-11-21T04:22:04.721Z,-5.26
2022-11-21T04:24:44.715Z,-5.27
2022-11-21T04:27:31.713Z,-5.25
2022-11-21T04:30:11.744Z,-5.22
2022-11-21T04:33:06.714Z,-5.21
2022-11-21T04:36:00.711Z,-5.18
2022-11-21T04:38:47.735Z,-5.18
2022-11-21T04:41:20.806Z,-5.16
2022-11-21T04:44:07.781Z,-5.14
2022-11-21T04:46:40.808Z,-5.12
2022-11-21T04:49:27.748Z,-5.11
2022-11-21T04:52:00.805Z,-5.10
2022-11-21T04:54:47.784Z,-5.09
2022-11-21T04:57:20.804Z,-5.03
2022-11-21T05:00:07.805Z,-4.98
2022-11-21T05:02:40.848Z,-4.99
2022-11-21T05:05:27.754Z,-5.01
2022-11-21T05:08:07.744Z,-5.01
2022-11-21T05:11:19.754Z,-5.01
2022-11-21T05:14:13.738Z,-5.02
2022-11-21T05:17:07.747Z,-5.01
2022-11-21T05:20:03.755Z,-5.06
2022-11-21T05:22:52.736Z,-5.07
2022-11-21T05:25:25.829Z,-5.14
2022-11-21T05:28:12.727Z,-5.18
2022-11-21T05:30:52.714Z,-5.20
2022-11-21T05:33:46.816Z,-5.21
2022-11-21T05:36:33.736Z,-5.24
2022-11-21T05:39:06.906Z,-5.30
2022-11-21T05:42:02.555Z,-5.30
2022-11-21T05:44:35.841Z,-5.32
2022-11-21T05:47:22.739Z,-5.28
2022-11-21T05:49:55.830Z,-5.28
2022-11-21T05:52:42.748Z,-5.28
2022-11-21T05:55:15.837Z,-5.27
2022-11-21T05:58:06.738Z,-5.29
2022-11-21T06:00:39.833Z,-5.33
2022-11-21T06:03:34.724Z,-5.30
2022-11-21T06:06:25.067Z,-5.27
2022-11-21T06:09:18.728Z,-5.21
2022-11-21T06:12:05.741Z,-5.14
2022-11-21T06:14:45.800Z,-5.12
2022-11-21T06:17:39.743Z,-5.07
2022-11-21T06:20:28.741Z,-5.00
2022-11-21T06:23:08.730Z,-4.96
2022-11-21T06:26:02.759Z,-4.92
2022-11-21T06:28:50.814Z,-4.87
2022-11-21T06:31:44.729Z,-4.81
2022-11-21T06:34:33.790Z,-4.73
2022-11-21T06:37:13.791Z,-4.67
2022-11-21T06:40:07.801Z,-4.62
2022-11-21T06:43:01.788Z,-4.60
2022-11-21T06:45:48.752Z,-4.57
2022-11-21T06:48:21.883Z,-4.56
2022-11-21T06:51:27.795Z,-4.55
2022-11-21T06:54:04.910Z,-4.55
2022-11-21T06:56:51.802Z,-4.52
2022-11-21T06:59:24.850Z,-4.50
2022-11-21T07:02:11.818Z,-4.48
2022-11-21T07:04:51.819Z,-4.47
2022-11-21T07:07:50.757Z,-4.45
2022-11-21T07:10:37.816Z,-4.49
2022-11-21T07:13:23.096Z,-4.50
2022-11-21T07:16:14.740Z,-4.47
2022-11-21T07:18:48.917Z,-4.46
2022-11-21T07:21:35.798Z,-4.40
2022-11-21T07:24:08.922Z,-4.33
2022-11-21T07:26:55.784Z,-4.30
2022-11-21T07:29:29.294Z,-4.28
2022-11-21T07:32:16.754Z,-4.24
2022-11-21T07:34:49.887Z,-4.20
2022-11-21T07:37:37.890Z,-4.15
2022-11-21T07:40:11.904Z,-4.10
2022-11-21T07:43:10.605Z,-4.10
2022-11-21T07:45:57.795Z,-4.04
2022-11-21T07:48:30.859Z,-4.00
2022-11-21T07:51:17.867Z,-3.96
2022-11-21T07:53:50.859Z,-3.92
2022-11-21T07:56:37.786Z,-3.89
2022-11-21T07:59:10.867Z,-3.87
2022-11-21T08:01:58.896Z,-3.78
2022-11-21T08:04:31.889Z,-3.72
2022-11-21T08:07:18.828Z,-3.66
2022-11-21T08:09:52.912Z,-3.61
2022-11-21T08:12:39.782Z,-3.54
2022-11-21T08:15:12.911Z,-3.48
2022-11-21T08:17:59.788Z,-3.42
2022-11-21T08:20:32.857Z,-3.38
2022-11-21T08:23:19.782Z,-3.36
2022-11-21T08:25:59.793Z,-3.29
2022-11-21T08:28:59.638Z,-3.21
2022-11-21T08:31:47.792Z,-3.09
2022-11-21T08:34:20.925Z,-3.00
2022-11-21T08:37:08.811Z,-2.89
2022-11-21T08:39:41.873Z,-2.80
2022-11-21T08:42:35.889Z,-2.73
2022-11-21T08:45:22.819Z,-2.65
2022-11-21T08:47:55.935Z,-2.58
2022-11-21T08:50:42.816Z,-2.46
2022-11-21T08:53:22.816Z,-2.35
2022-11-21T08:56:09.845Z,-2.26
2022-11-21T08:58:49.798Z,-2.16
2022-11-21T09:01:36.851Z,-2.03
2022-11-21T09:04:13.248Z,-1.92
2022-11-21T09:06:59.864Z,-1.80
2022-11-21T09:09:33.939Z,-1.67
2022-11-21T09:12:20.815Z,-1.64
2022-11-21T09:15:12.581Z,-1.58
2022-11-21T09:18:10.813Z,-1.52
2022-11-21T09:20:49.977Z,-1.42
2022-11-21T09:23:36.822Z,-1.41
2022-11-21T09:26:09.896Z,-1.41
2022-11-21T09:28:56.816Z,-1.35
2022-11-21T09:31:29.948Z,-1.30
2022-11-21T09:34:16.863Z,-1.26
2022-11-21T09:36:56.941Z,-1.22
2022-11-21T09:39:36.823Z,-1.16
2022-11-21T09:42:39.904Z,-1.10
2022-11-21T09:45:35.844Z,-1.06
2022-11-21T09:48:20.002Z,-0.99
2022-11-21T09:51:13.849Z,-0.93
2022-11-21T09:54:08.907Z,-0.91
2022-11-21T09:56:55.875Z,-0.86
2022-11-21T09:59:40.976Z,-0.79
2022-11-21T10:02:30.825Z,-0.75
2022-11-21T10:05:03.910Z,-0.69
2022-11-21T10:07:52.001Z,-0.64
2022-11-21T10:10:33.927Z,-0.60
2022-11-21T10:13:34.859Z,-0.56
2022-11-21T10:16:21.943Z,-0.52
2022-11-21T10:19:31.836Z,-0.50
2022-11-21T10:22:29.893Z,-0.48
2022-11-21T10:25:28.886Z,-0.44
2022-11-21T10:28:25.869Z,-0.40
2022-11-21T10:31:07.880Z,-0.33
2022-11-21T10:34:04.044Z,-0.29
2022-11-21T10:36:54.865Z,-0.26
2022-11-21T10:39:30.915Z,-0.23
2022-11-21T10:42:36.864Z,-0.20
2022-11-21T10:45:30.966Z,-0.16
2022-11-21T10:48:17.860Z,-0.13
2022-11-21T10:51:06.196Z,-0.09
2022-11-21T10:54:10.865Z,-0.09
2022-11-21T10:56:43.947Z,-0.04
2022-11-21T10:59:33.856Z,0.01
2022-11-21T11:02:25.865Z,0.03
2022-11-21T11:05:29.868Z,0.03
2022-11-21T11:08:18.865Z,0.05
2022-11-21T11:11:07.108Z,0.07
2022-11-21T11:14:04.588Z,0.09
2022-11-21T11:16:48.864Z,0.12
2022-11-21T11:19:43.058Z,0.14
2022-11-21T11:22:36.861Z,0.16
2022-11-21T11:25:17.938Z,0.17
2022-11-21T11:28:19.860Z,0.22
2022-11-21T11:31:13.888Z,0.27
2022-11-21T11:34:09.859Z,0.29
2022-11-21T11:37:39.877Z,0.31
2022-11-21T11:40:43.868Z,0.34
2022-11-21T11:44:13.860Z,0.36
2022-11-21T11:47:39.858Z,0.35
2022-11-21T11:50:38.872Z,0.36
2022-11-21T11:53:33.897Z,0.40
2022-11-21T11:56:24.865Z,0.49
2022-11-21T11:59:42.872Z,0.54
2022-11-21T12:02:31.979Z,0.58
2022-11-21T12:05:37.876Z,0.64
2022-11-21T12:08:41.821Z,0.68
2022-11-21T12:11:56.859Z,0.67
2022-11-21T12:15:36.860Z,0.67
2022-11-21T12:18:26.868Z,0.62
2022-11-21T12:21:29.861Z,0.63
2022-11-21T12:24:27.857Z,0.64
2022-11-21T12:27:30.862Z,0.69
2022-11-21T12:30:45.247Z,0.72
2022-11-21T12:33:38.867Z,0.77
2022-11-21T12:36:49.892Z,0.80
2022-11-21T12:39:55.960Z,0.86
2022-11-21T12:43:41.891Z,0.91
2022-11-21T12:46:41.867Z,0.97
2022-11-21T12:50:18.951Z,1.00
2022-11-21T12:53:42.965Z,1.04
2022-11-21T12:56:51.883Z,1.08
2022-11-21T12:59:59.165Z,1.12
2022-11-21T13:02:51.877Z,1.17
2022-11-21T13:05:42.924Z,1.20
2022-11-21T13:08:39.187Z,1.27
2022-11-21T13:12:00.935Z,1.29
2022-11-21T13:14:59.857Z,1.31
2022-11-21T13:17:34.704Z,1.34
2022-11-21T13:20:34.914Z,1.34
2022-11-21T13:23:15.886Z,1.35
2022-11-21T13:26:04.915Z,1.35
2022-11-21T13:28:41.021Z,1.38
2022-11-21T13:31:35.873Z,1.41
2022-11-21T13:34:10.957Z,1.40
2022-11-21T13:36:57.880Z,1.40
2022-11-21T13:39:39.117Z,1.42
2022-11-21T13:46:37.885Z,1.40
2022-11-21T13:49:29.133Z,1.40
2022-11-21T13:52:43.884Z,1.39
2022-11-21T13:56:09.882Z,1.37
2022-11-21T13:59:43.177Z,1.36
2022-11-21T14:02:29.958Z,1.37
2022-11-21T14:05:11.961Z,1.35
2022-11-21T14:07:59.006Z,1.35
2022-11-21T14:10:33.907Z,1.34
2022-11-21T14:13:34.918Z,1.32
2022-11-21T14:16:27.910Z,1.31
2022-11-21T14:19:28.222Z,1.29
2022-11-21T14:22:50.902Z,1.27
2022-11-21T14:25:27.097Z,1.27
2022-11-21T14:28:28.931Z,1.25
2022-11-21T14:31:03.033Z,1.23
2022-11-21T14:33:50.920Z,1.23
2022-11-21T14:36:30.922Z,1.24
2022-11-21T14:39:37.740Z,1.21
2022-11-21T14:42:32.928Z,1.22
2022-11-21T14:45:32.917Z,1.20
2022-11-21T14:48:20.074Z,1.19
2022-11-21T14:50:52.971Z,1.19
2022-11-21T14:53:39.914Z,1.17
2022-11-21T14:56:22.948Z,1.17
2022-11-21T14:59:24.934Z,1.14
2022-11-21T15:02:10.924Z,1.13
2022-11-21T15:05:05.894Z,1.12
2022-11-21T15:08:16.767Z,1.10
2022-11-21T15:10:47.976Z,1.07
2022-11-21T15:14:06.745Z,1.07
2022-11-21T15:16:33.990Z,1.06
2022-11-21T15:19:29.397Z,1.05
2022-11-21T15:22:05.050Z,1.04
2022-11-21T15:24:51.897Z,1.02
2022-11-21T15:27:34.060Z,1.03
2022-11-21T15:30:20.921Z,1.02
2022-11-21T15:33:20.088Z,1.01
2022-11-21T15:36:18.913Z,1.02
2022-11-21T15:39:13.945Z,0.99
2022-11-21T15:42:00.959Z,0.98
2022-11-21T15:44:33.990Z,0.98
2022-11-21T15:47:20.925Z,0.98
2022-11-21T15:50:00.975Z,0.97
2022-11-21T15:52:54.929Z,0.97
2022-11-21T15:55:39.926Z,0.97
2022-11-21T15:58:26.944Z,0.97
2022-11-21T16:01:00.439Z,0.97
2022-11-21T16:03:46.953Z,0.99
2022-11-21T16:06:20.035Z,0.97
2022-11-21T16:09:07.926Z,0.97
2022-11-21T16:11:49.024Z,0.97
2022-11-21T16:14:28.929Z,0.97
2022-11-21T16:17:09.051Z,0.96
2022-11-21T16:19:49.564Z,0.96
2022-11-21T16:22:29.991Z,0.95
2022-11-21T16:25:09.946Z,0.96
2022-11-21T16:27:50.008Z,0.94
2022-11-21T16:30:29.929Z,0.93
2022-11-21T16:33:10.009Z,0.92
2022-11-21T16:35:49.931Z,0.93
2022-11-21T16:38:34.999Z,0.90
2022-11-21T16:41:16.943Z,0.89
2022-11-21T16:44:03.999Z,0.88
2022-11-21T16:46:43.950Z,0.85
2022-11-21T16:49:38.938Z,0.83
2022-11-21T16:52:25.999Z,0.82
2022-11-21T16:54:59.023Z,0.81
2022-11-21T16:57:45.955Z,0.80
2022-11-21T17:00:19.053Z,0.79
2022-11-21T17:03:05.948Z,0.78
2022-11-21T17:05:42.118Z,0.76
2022-11-21T17:08:28.982Z,0.77
2022-11-21T17:11:02.025Z,0.76
2022-11-21T17:13:49.958Z,0.75
2022-11-21T17:16:25.064Z,0.74
2022-11-21T17:19:11.939Z,0.73
2022-11-21T17:21:45.020Z,0.72
2022-11-21T17:24:32.062Z,0.71
2022-11-21T17:27:11.966Z,0.71
2022-11-21T17:30:05.955Z,0.70
2022-11-21T17:32:59.967Z,0.69
2022-11-21T17:35:53.964Z,0.70
2022-11-21T17:38:41.029Z,0.68
2022-11-21T17:41:18.038Z,0.67
2022-11-21T17:44:12.974Z,0.66
2022-11-21T17:47:24.989Z,0.64
2022-11-21T17:50:18.972Z,0.64
2022-11-21T17:53:05.964Z,0.64
2022-11-21T17:55:39.056Z,0.62
2022-11-21T17:58:25.963Z,0.61
2022-11-21T18:01:11.131Z,0.62
2022-11-21T18:04:13.581Z,0.61
2022-11-21T18:06:48.250Z,0.61
2022-11-21T18:09:35.014Z,0.61
2022-11-21T18:12:15.044Z,0.61
2022-11-21T18:15:10.073Z,0.58
2022-11-21T18:17:57.996Z,0.62
2022-11-21T18:20:31.086Z,0.61
2022-11-21T18:23:18.062Z,0.61
2022-11-21T18:25:51.176Z,0.61
2022-11-21T18:28:39.019Z,0.61
2022-11-21T18:31:19.063Z,0.63
2022-11-21T18:34:07.972Z,0.65
2022-11-21T18:36:41.134Z,0.64
2022-11-21T18:39:30.206Z,0.63
2022-11-21T18:42:10.993Z,0.63
2022-11-21T18:45:04.997Z,0.62
2022-11-21T18:47:53.051Z,0.63
2022-11-21T18:50:26.068Z,0.63
2022-11-21T18:53:12.969Z,0.66
2022-11-21T18:55:52.989Z,0.67
2022-11-21T18:58:47.992Z,0.68
2022-11-21T19:01:36.263Z,0.68
2022-11-21T19:04:17.021Z,0.68
2022-11-21T19:07:11.059Z,0.67
2022-11-21T19:10:14.765Z,0.66
2022-11-21T19:12:51.055Z,0.67
2022-11-21T19:15:38.992Z,0.69
2022-11-21T19:18:13.074Z,0.71
2022-11-21T19:21:00.006Z,0.71
2022-11-21T19:23:33.151Z,0.70
2022-11-21T19:26:21.995Z,0.70
2022-11-21T19:28:56.094Z,0.70
2022-11-21T19:31:45.950Z,0.68
2022-11-21T19:34:23.171Z,0.68
2022-11-21T19:37:10.002Z,0.68
2022-11-21T19:39:43.096Z,0.65
2022-11-21T19:42:30.018Z,0.64
2022-11-21T19:45:28.051Z,0.61
2022-11-21T19:48:15.013Z,0.59
2022-11-21T19:50:52.792Z,0.56
2022-11-21T19:53:45.031Z,0.54
2022-11-21T19:56:24.196Z,0.51
2022-11-21T19:59:12.057Z,0.48
2022-11-21T20:01:51.028Z,0.47
2022-11-21T20:04:39.007Z,0.44
2022-11-21T20:07:12.133Z,0.40
2022-11-21T20:09:59.044Z,0.38
2022-11-21T20:12:32.126Z,0.37
2022-11-21T20:15:19.040Z,0.34
2022-11-21T20:17:56.126Z,0.34
2022-11-21T20:20:43.037Z,0.31
2022-11-21T20:23:16.086Z,0.30
2022-11-21T20:26:03.073Z,0.27
2022-11-21T20:28:36.177Z,0.25
2022-11-21T20:31:25.003Z,0.21
2022-11-21T20:34:00.829Z,0.19
2022-11-21T20:36:48.019Z,0.19
2022-11-21T20:39:31.692Z,0.18
2022-11-21T20:42:18.016Z,0.19
2022-11-21T20:46:01.019Z,0.19
2022-11-21T20:47:58.005Z,0.19
2022-11-21T20:51:25.174Z,0.19
2022-11-21T20:53:51.512Z,0.17
2022-11-21T20:56:34.023Z,0.18
2022-11-21T20:59:21.041Z,0.18
2022-11-21T21:02:01.070Z,0.21
2022-11-21T21:04:48.040Z,0.23
2022-11-21T21:07:28.103Z,0.25
2022-11-21T21:10:22.015Z,0.27
2022-11-21T21:13:09.032Z,0.27
2022-11-21T21:15:42.101Z,0.28
2022-11-21T21:18:29.040Z,0.29
2022-11-21T21:21:22.098Z,0.28
2022-11-21T21:24:12.066Z,0.26
2022-11-21T21:26:52.180Z,0.29
2022-11-21T21:29:39.050Z,0.30
2022-11-21T21:32:12.137Z,0.31
2022-11-21T21:34:59.028Z,0.33
2022-11-21T21:37:32.127Z,0.33
2022-11-21T21:40:19.055Z,0.32
2022-11-21T21:42:52.106Z,0.33
2022-11-21T21:45:39.055Z,0.34
2022-11-21T21:48:19.027Z,0.34
2022-11-21T21:51:18.063Z,0.32
2022-11-21T21:54:06.054Z,0.34
2022-11-21T21:56:46.055Z,0.36
2022-11-21T21:59:40.056Z,0.37
2022-11-21T22:02:27.037Z,0.38
2022-11-21T22:05:00.123Z,0.39
2022-11-21T22:07:47.101Z,0.38
2022-11-21T22:10:20.146Z,0.39
2022-11-21T22:13:07.059Z,0.38
2022-11-21T22:15:40.120Z,0.37
2022-11-21T22:18:27.057Z,0.36
2022-11-21T22:21:00.132Z,0.36
2022-11-21T22:24:09.755Z,0.37
2022-11-21T22:26:40.153Z,0.38
2022-11-21T22:29:27.076Z,0.39
2022-11-21T22:32:00.145Z,0.39
2022-11-21T22:34:47.033Z,0.39
2022-11-21T22:37:20.128Z,0.40
2022-11-21T22:40:07.062Z,0.39
2022-11-21T22:42:40.159Z,0.40
2022-11-21T22:45:27.063Z,0.40
2022-11-21T22:48:00.135Z,0.41
2022-11-21T22:50:51.082Z,0.41
2022-11-21T22:53:24.130Z,0.41
2022-11-21T22:56:14.068Z,0.40
2022-11-21T22:58:47.171Z,0.41
2022-11-21T23:01:34.156Z,0.39
2022-11-21T23:04:17.690Z,0.39
2022-11-21T23:07:12.130Z,0.40
2022-11-21T23:09:59.092Z,0.41
2022-11-21T23:12:32.158Z,0.40
2022-11-21T23:15:19.095Z,0.42
2022-11-21T23:17:52.739Z,0.41
2022-11-21T23:20:39.076Z,0.43
2022-11-21T23:23:12.198Z,0.44
2022-11-21T23:25:59.084Z,0.43
2022-11-21T23:28:32.167Z,0.43
2022-11-21T23:31:19.071Z,0.43
2022-11-21T23:33:52.155Z,0.41
2022-11-21T23:36:39.070Z,0.42
2022-11-21T23:39:12.222Z,0.40
2022-11-21T23:41:59.094Z,0.38
2022-11-21T23:44:39.088Z,0.38
2022-11-21T23:47:33.124Z,0.37
2022-11-21T23:50:28.124Z,0.35
2022-11-21T23:53:16.087Z,0.35
2022-11-21T23:55:50.160Z,0.34
2022-11-21T23:58:37.113Z,0.34
